Time;durP1;ratioP1;P1;durP2;ratioP2;P2;SDS_P1;SDS_P2;PMS_P1;PMS_P2;Temp;Humidity;BMP_temperature;BMP_pressure;BME280_temperature;BME280_humidity;BME280_pressure;Samples;Min_cycle;Max_cycle;Signal;HPM_P1;HPM_P2
2023/08/31 00:01:35;;;;;;;2.85;2.38;;;;;;;10.85;100.00;100795.28;6249862;22;20132;-78
2023/08/31 00:04:03;;;;;;;2.95;2.70;;;;;;;10.87;100.00;100800.16;6250183;22;20012;-78
2023/08/31 00:06:30;;;;;;;2.55;2.35;;;;;;;10.87;100.00;100806.25;6248860;22;20036;-78
2023/08/31 00:08:57;;;;;;;5.20;3.05;;;;;;;10.86;100.00;100806.69;6222616;22;20100;-79
2023/08/31 00:11:25;;;;;;;3.10;2.80;;;;;;;10.86;100.00;100809.34;6222521;22;20031;-78
2023/08/31 00:13:52;;;;;;;6.03;2.67;;;;;;;10.86;100.00;100804.75;6223350;22;20033;-78
2023/08/31 00:16:25;;;;;;;5.80;2.83;;;;;;;10.86;100.00;100801.34;6249588;22;20918;-78
2023/08/31 00:18:51;;;;;;;3.88;2.63;;;;;;;10.85;100.00;100797.19;6249961;22;20492;-79
2023/08/31 00:21:18;;;;;;;3.80;2.78;;;;;;;10.85;100.00;100792.63;6248871;22;20020;-79
2023/08/31 00:23:45;;;;;;;3.63;2.60;;;;;;;10.84;100.00;100798.38;6250131;22;20470;-78
2023/08/31 00:26:11;;;;;;;3.75;2.60;;;;;;;10.85;100.00;100791.88;6222679;22;20017;-78
2023/08/31 00:28:39;;;;;;;3.08;2.88;;;;;;;10.84;100.00;100796.47;6197297;22;20028;-79
2023/08/31 00:31:06;;;;;;;4.28;2.83;;;;;;;10.86;100.00;100791.44;6222563;22;20092;-78
2023/08/31 00:33:33;;;;;;;5.13;2.90;;;;;;;10.86;100.00;100796.75;6222681;22;20107;-78
2023/08/31 00:36:01;;;;;;;4.80;3.08;;;;;;;10.86;100.00;100798.69;6222281;22;20422;-79
2023/08/31 00:38:28;;;;;;;3.10;2.80;;;;;;;10.88;100.00;100806.97;6221446;22;20020;-80
2023/08/31 00:40:55;;;;;;;4.55;2.97;;;;;;;10.89;100.00;100808.47;6250502;22;20148;-79
2023/08/31 00:43:22;;;;;;;3.95;2.88;;;;;;;10.89;100.00;100811.88;6197326;22;20414;-77
2023/08/31 00:45:58;;;;;;;3.55;3.22;;;;;;;10.90;100.00;100812.59;6250168;22;20470;-80
2023/08/31 00:48:26;;;;;;;4.28;2.92;;;;;;;10.91;100.00;100817.50;6221939;22;20059;-79
2023/08/31 00:50:53;;;;;;;3.35;3.10;;;;;;;10.93;100.00;100809.06;6223375;22;20477;-78
2023/08/31 00:53:20;;;;;;;5.20;3.10;;;;;;;10.94;100.00;100802.56;6197087;22;20012;-79
2023/08/31 00:55:47;;;;;;;6.40;2.92;;;;;;;10.96;100.00;100800.94;6250254;22;20013;-78
2023/08/31 00:58:13;;;;;;;3.97;3.38;;;;;;;10.99;100.00;100802.72;6249628;22;20044;-78
2023/08/31 01:01:12;;;;;;;4.95;3.42;;;;;;;11.02;100.00;100798.44;6222455;22;20049;-78
2023/08/31 01:03:46;;;;;;;4.47;3.60;;;;;;;11.03;100.00;100797.25;6249310;22;20024;-78
2023/08/31 01:06:34;;;;;;;3.63;3.03;;;;;;;11.04;100.00;100793.41;6222950;22;20100;-78
2023/08/31 01:09:18;;;;;;;3.55;3.25;;;;;;;11.03;100.00;100798.00;6222708;22;20028;-78
2023/08/31 01:11:54;;;;;;;8.40;3.63;;;;;;;11.04;100.00;100804.06;6222937;22;20021;-77
2023/08/31 01:14:24;;;;;;;3.72;3.42;;;;;;;11.03;100.00;100800.66;6249351;22;20095;-78
2023/08/31 01:16:53;;;;;;;5.68;4.03;;;;;;;11.02;100.00;100799.19;6249969;22;20095;-78
2023/08/31 01:19:49;;;;;;;4.80;4.40;;;;;;;11.03;100.00;100791.94;6248434;22;20017;-78
2023/08/31 01:22:27;;;;;;;5.90;4.40;;;;;;;11.02;100.00;100799.19;6222431;22;20028;-79
2023/08/31 01:24:54;;;;;;;5.13;4.63;;;;;;;11.03;100.00;100797.25;6223001;22;20083;-78
2023/08/31 01:27:21;;;;;;;4.35;4.03;;;;;;;11.03;100.00;100792.69;6248982;22;20044;-78
2023/08/31 01:29:48;;;;;;;4.45;4.05;;;;;;;11.04;100.00;100798.75;6197059;22;20457;-78
2023/08/31 01:32:14;;;;;;;5.60;4.35;;;;;;;11.03;100.00;100806.00;6248912;22;20369;-78
2023/08/31 01:34:41;;;;;;;6.30;4.43;;;;;;;11.05;100.00;100800.22;6249649;22;20044;-78
2023/08/31 01:37:16;;;;;;;5.00;4.60;;;;;;;11.03;100.00;100807.91;6222291;22;20454;-78
2023/08/31 01:40:06;;;;;;;5.18;4.68;;;;;;;11.02;100.00;100801.84;6221960;22;20084;-79
2023/08/31 01:42:33;;;;;;;5.57;5.07;;;;;;;11.04;100.00;100804.06;6196728;22;20025;-78
2023/08/31 01:45:01;;;;;;;7.15;5.40;;;;;;;11.05;100.00;100804.81;6222521;22;20072;-78
2023/08/31 01:47:28;;;;;;;9.70;5.43;;;;;;;11.08;100.00;100809.25;6248388;22;20013;-78
2023/08/31 01:49:55;;;;;;;5.85;5.32;;;;;;;11.09;100.00;100808.09;6222337;22;20127;-78
2023/08/31 01:52:23;;;;;;;8.40;5.72;;;;;;;11.11;100.00;100806.47;6222264;22;20395;-78
2023/08/31 01:54:49;;;;;;;9.88;6.15;;;;;;;11.12;100.00;100812.53;6249685;22;20091;-78
2023/08/31 01:57:16;;;;;;;9.27;6.22;;;;;;;11.13;100.00;100828.09;6196865;22;20021;-78
2023/08/31 02:00:01;;;;;;;9.13;5.85;;;;;;;11.15;100.00;100830.31;6226816;22;20099;-79
2023/08/31 02:02:40;;;;;;;8.75;5.07;;;;;;;11.19;100.00;100830.91;6224645;22;20029;-78
2023/08/31 02:05:07;;;;;;;6.95;5.13;;;;;;;11.21;100.00;100833.84;6221956;22;20020;-78
2023/08/31 02:07:33;;;;;;;7.13;5.45;;;;;;;11.25;100.00;100834.44;6222047;22;20096;-78
2023/08/31 02:10:01;;;;;;;5.03;4.70;;;;;;;11.27;100.00;100824.09;6249290;22;20023;-78
2023/08/31 02:12:28;;;;;;;7.72;5.30;;;;;;;11.30;100.00;100820.56;6248533;22;20079;-79
2023/08/31 02:14:55;;;;;;;6.60;5.60;;;;;;;11.35;100.00;100827.97;6249367;22;20023;-79
2023/08/31 02:17:22;;;;;;;6.22;5.72;;;;;;;11.38;100.00;100821.00;6248271;22;20087;-79
2023/08/31 02:19:48;;;;;;;7.88;6.20;;;;;;;11.41;100.00;100825.47;6249365;22;20013;-78
2023/08/31 02:22:15;;;;;;;9.35;6.85;;;;;;;11.46;100.00;100825.63;6221668;22;20419;-78
2023/08/31 02:24:41;;;;;;;7.38;6.68;;;;;;;11.47;100.00;100819.09;6222145;22;20353;-78
2023/08/31 02:27:08;;;;;;;7.22;6.53;;;;;;;11.50;100.00;100820.88;6221834;22;20028;-78
2023/08/31 02:29:34;;;;;;;9.23;7.45;;;;;;;11.53;100.00;100832.59;6221564;22;20087;-78
2023/08/31 02:32:05;;;;;;;9.20;6.43;;;;;;;11.55;100.00;100832.88;6248936;22;20016;-79
2023/08/31 02:34:32;;;;;;;8.00;7.00;;;;;;;11.55;100.00;100828.28;6197230;22;20016;-78
2023/08/31 02:36:59;;;;;;;8.10;6.75;;;;;;;11.57;100.00;100830.53;6249395;22;20068;-79
2023/08/31 02:39:27;;;;;;;6.68;6.07;;;;;;;11.57;100.00;100825.94;6221197;22;20104;-78
2023/08/31 02:41:53;;;;;;;8.05;6.07;;;;;;;11.57;100.00;100822.53;6249808;22;20016;-78
2023/08/31 02:44:20;;;;;;;11.68;5.95;;;;;;;11.58;100.00;100830.06;6250148;22;20013;-79
2023/08/31 02:46:48;;;;;;;7.55;6.22;;;;;;;11.59;100.00;100825.50;6250814;22;20460;-78
2023/08/31 02:49:14;;;;;;;7.55;6.45;;;;;;;11.59;100.00;100820.16;6223024;22;20020;-79
2023/08/31 02:51:41;;;;;;;11.88;6.93;;;;;;;11.59;100.00;100820.16;6250349;22;20431;-79
2023/08/31 02:54:08;;;;;;;8.88;6.88;;;;;;;11.59;100.00;100828.16;6250487;22;20013;-79
2023/08/31 02:56:34;;;;;;;7.90;6.35;;;;;;;11.58;100.00;100813.34;6198470;22;20426;-78
2023/08/31 02:59:01;;;;;;;6.88;6.18;;;;;;;11.57;100.00;100817.94;6249803;22;20092;-78
2023/08/31 03:01:28;;;;;;;10.15;6.35;;;;;;;11.58;100.00;100819.41;6222323;22;20024;-78
2023/08/31 03:03:55;;;;;;;6.72;6.20;;;;;;;11.59;100.00;100820.91;6223169;22;20020;-78
2023/08/31 03:06:22;;;;;;;7.88;5.70;;;;;;;11.58;100.00;100818.66;6222337;22;20020;-78
2023/08/31 03:08:48;;;;;;;5.70;5.05;;;;;;;11.59;100.00;100815.56;6223492;22;20020;-78
2023/08/31 03:11:15;;;;;;;7.75;5.38;;;;;;;11.60;100.00;100817.03;6223255;22;20051;-78
2023/08/31 03:13:42;;;;;;;5.90;4.88;;;;;;;11.63;100.00;100818.78;6249662;22;20020;-80
2023/08/31 03:16:10;;;;;;;5.57;4.88;;;;;;;11.62;100.00;100811.97;6222832;22;20045;-78
2023/08/31 03:18:37;;;;;;;5.75;4.75;;;;;;;11.64;100.00;100817.63;6222766;22;20455;-78
2023/08/31 03:21:04;;;;;;;6.15;4.75;;;;;;;11.65;100.00;100819.09;6223792;22;20048;-79
2023/08/31 03:23:30;;;;;;;8.57;5.10;;;;;;;11.64;100.00;100822.22;6222798;22;20435;-80
2023/08/31 03:25:57;;;;;;;5.40;4.78;;;;;;;11.64;100.00;100832.88;6250824;22;20044;-79
2023/08/31 03:28:26;;;;;;;5.88;4.53;;;;;;;11.63;100.00;100829.47;6221834;22;20119;-78
2023/08/31 03:30:56;;;;;;;5.65;4.28;;;;;;;11.67;100.00;100837.31;6250256;22;20029;-79
2023/08/31 03:33:23;;;;;;;7.80;4.50;;;;;;;11.64;100.00;100832.88;6223134;22;20012;-79
2023/08/31 03:35:50;;;;;;;5.30;3.97;;;;;;;11.63;100.00;100820.72;6223183;22;20040;-79
2023/08/31 03:38:17;;;;;;;4.10;3.53;;;;;;;11.62;100.00;100813.91;6222848;22;20017;-78
2023/08/31 03:40:52;;;;;;;4.90;4.05;;;;;;;11.61;100.00;100815.09;6223080;22;20029;-78
2023/08/31 03:43:19;;;;;;;4.65;4.10;;;;;;;11.57;100.00;100815.25;6222079;22;20023;-77
2023/08/31 03:45:46;;;;;;;3.72;3.50;;;;;;;11.58;100.00;100821.34;6223154;22;20013;-77
2023/08/31 03:48:12;;;;;;;4.93;3.55;;;;;;;11.58;100.00;100824.00;6223052;22;20413;-77
2023/08/31 03:50:39;;;;;;;3.63;3.33;;;;;;;11.58;100.00;100846.06;6197744;22;20029;-79
2023/08/31 03:53:06;;;;;;;4.35;3.40;;;;;;;11.56;100.00;100851.09;6222712;22;20019;-79
2023/08/31 03:55:36;;;;;;;3.25;2.88;;;;;;;11.55;100.00;100841.63;6250211;22;20067;-79
2023/08/31 03:58:03;;;;;;;3.78;2.90;;;;;;;11.54;100.00;100842.81;6249768;22;20035;-79
2023/08/31 04:00:30;;;;;;;3.30;3.10;;;;;;;11.54;100.00;100845.47;6222338;22;20489;-79
2023/08/31 04:02:57;;;;;;;3.42;3.13;;;;;;;11.55;100.00;100841.63;6250540;22;20024;-78
2023/08/31 04:05:27;;;;;;;3.38;3.08;;;;;;;11.53;100.00;100836.00;6222496;22;20021;-78
2023/08/31 04:07:54;;;;;;;5.88;2.90;;;;;;;11.51;100.00;100843.69;6250167;22;20023;-78
2023/08/31 04:10:20;;;;;;;3.13;2.75;;;;;;;11.51;100.00;100846.34;6222157;22;20390;-78
2023/08/31 04:12:47;;;;;;;3.22;2.83;;;;;;;11.52;100.00;100850.50;6197783;22;20021;-79
2023/08/31 04:15:14;;;;;;;3.25;2.95;;;;;;;11.50;100.00;100854.78;6222908;22;20103;-79
2023/08/31 04:17:41;;;;;;;3.30;3.00;;;;;;;11.51;100.00;100850.94;6222602;22;20016;-79
2023/08/31 04:20:08;;;;;;;7.10;3.38;;;;;;;11.51;100.00;100846.34;6222746;22;20031;-79
2023/08/31 04:22:35;;;;;;;5.00;3.40;;;;;;;11.52;100.00;100842.50;6250104;22;20021;-78
2023/08/31 04:25:02;;;;;;;3.47;3.10;;;;;;;11.52;100.00;100847.09;6223605;22;20012;-78
2023/08/31 04:27:31;;;;;;;4.72;3.20;;;;;;;11.52;100.00;100845.19;6249076;22;20016;-77
2023/08/31 04:29:59;;;;;;;4.30;3.03;;;;;;;11.51;100.00;100846.34;6250084;22;20048;-78
2023/08/31 04:32:25;;;;;;;3.85;3.50;;;;;;;11.51;100.00;100838.38;6249498;22;20088;-78
2023/08/31 04:34:53;;;;;;;5.82;3.60;;;;;;;11.52;100.00;100847.84;6249907;22;20024;-78
2023/08/31 04:37:22;;;;;;;4.30;3.53;;;;;;;11.53;100.00;100853.91;6249231;22;20023;-78
2023/08/31 04:39:49;;;;;;;4.45;4.05;;;;;;;11.54;100.00;100861.47;6249646;22;20023;-77
2023/08/31 04:42:18;;;;;;;6.65;3.92;;;;;;;11.55;100.00;100857.63;6249292;22;20415;-78
2023/08/31 04:44:45;;;;;;;5.07;4.57;;;;;;;11.57;100.00;100865.91;6250259;22;20013;-78
2023/08/31 04:47:11;;;;;;;5.97;4.50;;;;;;;11.59;100.00;100862.81;6249950;22;20016;-78
2023/08/31 04:49:38;;;;;;;5.88;4.05;;;;;;;11.58;100.00;100872.75;6249685;22;20624;-78
2023/08/31 04:52:05;;;;;;;5.55;4.78;;;;;;;11.59;100.00;100868.88;6250281;22;20048;-78
2023/08/31 04:54:32;;;;;;;9.38;4.70;;;;;;;11.60;100.00;100878.34;6249741;22;20025;-78
2023/08/31 04:56:59;;;;;;;4.45;4.03;;;;;;;11.62;100.00;100888.56;6249606;22;20075;-78
2023/08/31 04:59:25;;;;;;;4.25;3.85;;;;;;;11.61;100.00;100887.81;6222410;22;20059;-78
2023/08/31 05:01:52;;;;;;;5.22;3.88;;;;;;;11.61;100.00;100892.41;6250052;22;20719;-78
2023/08/31 05:04:18;;;;;;;5.97;3.40;;;;;;;11.62;100.00;100899.22;6248998;22;20013;-78
2023/08/31 05:06:45;;;;;;;3.75;3.30;;;;;;;11.63;100.00;100898.06;6249244;22;20463;-78
2023/08/31 05:09:11;;;;;;;4.22;3.13;;;;;;;11.65;100.00;100898.34;6249403;22;20024;-78
2023/08/31 05:11:38;;;;;;;3.05;2.78;;;;;;;11.64;100.00;100897.59;6248962;22;20593;-78
2023/08/31 05:14:04;;;;;;;6.85;2.53;;;;;;;11.64;100.00;100904.88;6249768;22;20012;-77
2023/08/31 05:16:31;;;;;;;7.22;2.42;;;;;;;11.65;100.00;100909.75;6249216;22;20469;-77
2023/08/31 05:18:58;;;;;;;4.15;2.30;;;;;;;11.65;100.00;100896.44;6249767;22;20853;-78
2023/08/31 05:21:24;;;;;;;4.28;2.42;;;;;;;11.68;100.00;100908.13;6248857;22;20013;-77
2023/08/31 05:23:51;;;;;;;3.25;2.47;;;;;;;11.72;100.00;100916.00;6249757;22;20013;-77
2023/08/31 05:26:18;;;;;;;6.57;3.17;;;;;;;11.75;100.00;100913.19;6222326;22;20016;-77
2023/08/31 05:28:45;;;;;;;9.00;3.80;;;;;;;11.78;100.00;100909.66;6250028;22;20027;-77
2023/08/31 05:31:11;;;;;;;3.50;3.22;;;;;;;11.80;100.00;100914.56;6249281;22;20028;-77
2023/08/31 05:33:38;;;;;;;4.50;4.10;;;;;;;11.83;100.00;100921.66;6249612;22;20435;-80
2023/08/31 05:36:04;;;;;;;4.43;4.13;;;;;;;11.88;100.00;100907.75;6222978;22;20080;-78
2023/08/31 05:38:31;;;;;;;7.68;4.40;;;;;;;11.95;100.00;100902.88;6248434;22;20023;-78
2023/08/31 05:41:09;;;;;;;7.57;4.38;;;;;;;12.00;100.00;100918.25;6250015;22;20013;-78
2023/08/31 05:43:36;;;;;;;5.05;4.28;;;;;;;12.02;100.00;100923.16;6249439;22;20464;-76
2023/08/31 05:46:03;;;;;;;8.95;5.05;;;;;;;12.05;100.00;100913.53;6222426;22;20028;-77
2023/08/31 05:48:31;;;;;;;4.90;4.50;;;;;;;12.07;100.00;100917.22;6248794;22;20485;-76
2023/08/31 05:50:57;;;;;;;5.47;4.45;;;;;;;12.10;100.00;100923.59;6249830;22;20020;-75
2023/08/31 05:53:24;;;;;;;6.93;4.97;;;;;;;12.12;100.00;100923.91;6248167;22;20023;-76
2023/08/31 05:55:50;;;;;;;6.75;5.35;;;;;;;12.11;100.00;100923.16;6249535;22;20443;-75
2023/08/31 05:58:17;;;;;;;5.70;5.18;;;;;;;12.16;100.00;100935.19;6249461;22;20139;-76
2023/08/31 06:00:44;;;;;;;6.47;5.55;;;;;;;12.21;100.00;100937.25;6249499;22;20529;-76
2023/08/31 06:03:10;;;;;;;5.95;5.35;;;;;;;12.20;100.00;100957.88;6249203;22;20048;-76
2023/08/31 06:05:38;;;;;;;5.57;5.18;;;;;;;12.21;100.00;100963.94;6249145;22;20013;-75
2023/08/31 06:08:05;;;;;;;6.20;5.60;;;;;;;12.18;100.00;100962.16;6248913;22;20459;-78
2023/08/31 06:10:32;;;;;;;8.30;5.93;;;;;;;12.18;100.00;100962.91;6221364;22;20117;-78
2023/08/31 06:12:58;;;;;;;8.35;5.20;;;;;;;12.17;100.00;100960.69;6249924;22;20051;-77
2023/08/31 06:15:25;;;;;;;4.90;4.43;;;;;;;12.14;100.00;100964.97;6249083;22;20433;-79
2023/08/31 06:17:51;;;;;;;4.60;4.20;;;;;;;12.15;100.00;100953.13;6223804;22;20031;-81
2023/08/31 06:20:18;;;;;;;5.63;3.90;;;;;;;12.18;100.00;100954.16;6250459;22;20450;-79
2023/08/31 06:22:45;;;;;;;6.00;4.72;;;;;;;12.22;100.00;100960.81;6250376;22;20012;-79
2023/08/31 06:25:11;;;;;;;11.27;4.75;;;;;;;12.26;100.00;100960.69;6250234;22;20048;-75
2023/08/31 06:27:39;;;;;;;7.50;4.95;;;;;;;12.32;100.00;100964.25;6223337;22;20049;-78
2023/08/31 06:30:08;;;;;;;6.10;5.60;;;;;;;12.39;100.00;100960.53;6250450;22;20021;-78
2023/08/31 06:32:34;;;;;;;9.07;6.10;;;;;;;12.45;100.00;100964.81;6223461;22;20461;-78
2023/08/31 06:35:01;;;;;;;11.88;6.93;;;;;;;12.46;100.00;100963.63;6224190;22;20044;-78
2023/08/31 06:37:27;;;;;;;11.32;6.97;;;;;;;12.45;100.00;100966.75;6222434;22;20021;-77
2023/08/31 06:39:54;;;;;;;10.65;7.47;;;;;;;12.42;100.00;100959.63;6223527;22;20320;-78
2023/08/31 06:42:22;;;;;;;10.20;6.50;;;;;;;12.41;100.00;100950.13;6249785;22;20533;-77
2023/08/31 06:44:51;;;;;;;7.30;6.30;;;;;;;12.40;100.00;100959.31;6224453;22;20080;-77
2023/08/31 06:47:17;;;;;;;5.30;4.80;;;;;;;12.39;100.00;100949.88;6250507;22;20422;-79
2023/08/31 06:49:44;;;;;;;3.55;3.30;;;;;;;12.37;100.00;100960.97;6224316;22;20046;-82
2023/08/31 06:52:11;;;;;;;3.83;3.33;;;;;;;12.41;100.00;100952.81;6249395;22;20013;-81
2023/08/31 06:54:56;;;;;;;6.05;3.67;;;;;;;12.58;100.00;100962.00;6250877;22;20091;-81
2023/08/31 06:57:23;;;;;;;9.93;3.60;;;;;;;12.69;100.00;100978.31;6250185;22;20024;-82
2023/08/31 06:59:50;;;;;;;4.28;3.78;;;;;;;12.72;100.00;100977.41;6250804;22;20032;-81
2023/08/31 07:02:18;;;;;;;7.65;4.65;;;;;;;12.75;100.00;100968.50;6250202;22;20019;-81
2023/08/31 07:04:45;;;;;;;9.13;4.90;;;;;;;12.86;100.00;100978.69;6223245;22;20429;-81
2023/08/31 07:07:14;;;;;;;8.07;5.93;;;;;;;12.94;100.00;100983.28;6249657;22;20032;-81
2023/08/31 07:09:46;;;;;;;9.23;5.82;;;;;;;13.24;100.00;100988.84;6250245;22;20443;-80
2023/08/31 07:12:12;;;;;;;12.55;5.63;;;;;;;13.42;100.00;100993.41;6250335;22;20027;-80
2023/08/31 07:14:39;;;;;;;8.23;5.70;;;;;;;13.54;100.00;100993.19;6223377;22;20512;-80
2023/08/31 07:17:06;;;;;;;7.85;5.60;;;;;;;13.53;100.00;100986.38;6250597;22;20016;-81
2023/08/31 07:19:36;;;;;;;11.65;5.72;;;;;;;13.53;100.00;100989.06;6250331;22;20013;-81
2023/08/31 07:22:04;;;;;;;16.20;6.15;;;;;;;13.46;100.00;100993.97;6250279;22;20017;-81
2023/08/31 07:24:31;;;;;;;10.07;5.97;;;;;;;13.48;100.00;100996.94;6250088;22;20347;-83
2023/08/31 07:26:58;;;;;;;5.97;5.22;;;;;;;13.44;100.00;100999.03;6223921;22;20451;-82
2023/08/31 07:29:24;;;;;;;6.55;4.75;;;;;;;13.35;100.00;101000.56;6249763;22;20122;-82
2023/08/31 07:31:51;;;;;;;6.20;5.13;;;;;;;13.32;100.00;101009.47;6250701;22;20027;-81
2023/08/31 07:34:17;;;;;;;6.93;4.68;;;;;;;13.27;100.00;101010.09;6223334;22;20430;-82
2023/08/31 07:36:44;;;;;;;12.65;4.97;;;;;;;13.29;100.00;101009.63;6223147;22;20454;-81
2023/08/31 07:39:11;;;;;;;7.90;4.80;;;;;;;13.58;100.00;101014.44;6249777;22;20084;-81
2023/08/31 07:41:37;;;;;;;13.73;5.40;;;;;;;13.90;100.00;101012.94;6250607;22;20091;-82
2023/08/31 07:44:06;;;;;;;7.00;5.18;;;;;;;13.92;100.00;101008.59;6250437;22;20023;-85
2023/08/31 07:46:32;;;;;;;5.78;5.25;;;;;;;13.87;100.00;101014.56;6223367;22;20484;-80
2023/08/31 07:48:59;;;;;;;6.65;5.68;;;;;;;13.92;100.00;101013.22;6249887;22;20012;-79
2023/08/31 07:51:26;;;;;;;5.57;4.90;;;;;;;14.05;100.00;101029.75;6249666;22;20507;-85
2023/08/31 07:53:52;;;;;;;13.98;5.63;;;;;;;14.03;100.00;101018.78;6250676;22;20462;-79
2023/08/31 07:56:19;;;;;;;11.20;5.60;;;;;;;13.90;100.00;101023.63;6249815;22;20036;-78
2023/08/31 07:58:45;;;;;;;5.88;5.18;;;;;;;13.92;100.00;101021.25;6250154;22;20017;-77
2023/08/31 08:01:12;;;;;;;5.20;4.55;;;;;;;13.83;100.00;101030.06;6249667;22;20438;-80
2023/08/31 08:03:39;;;;;;;4.85;4.45;;;;;;;13.83;100.00;101034.66;6249518;22;20112;-79
2023/08/31 08:06:06;;;;;;;6.50;4.53;;;;;;;13.90;100.00;101037.75;6250091;22;20020;-82
2023/08/31 08:08:33;;;;;;;7.95;4.60;;;;;;;13.96;100.00;101032.53;6249898;22;20016;-87
2023/08/31 08:10:59;;;;;;;7.50;4.43;;;;;;;13.99;100.00;101034.28;6224071;22;20063;-84
2023/08/31 08:13:26;;;;;;;4.55;3.80;;;;;;;14.04;100.00;101039.00;6250239;22;20092;-84
2023/08/31 08:15:53;;;;;;;4.22;3.70;;;;;;;14.13;100.00;101030.91;6222855;22;20025;-80
2023/08/31 08:18:19;;;;;;;7.78;3.80;;;;;;;14.29;100.00;101038.53;6221956;22;20020;-82
2023/08/31 08:20:53;;;;;;;10.75;4.45;;;;;;;14.43;100.00;101039.78;6250015;22;20020;-81
2023/08/31 08:23:21;;;;;;;6.00;4.30;;;;;;;14.60;100.00;101042.78;6249349;22;20431;-80
2023/08/31 08:25:48;;;;;;;5.53;5.03;;;;;;;15.17;100.00;101047.91;6223142;22;20100;-82
2023/08/31 08:28:14;;;;;;;21.40;5.55;;;;;;;15.06;100.00;101040.44;6250173;22;20013;-86
2023/08/31 08:30:41;;;;;;;9.52;5.45;;;;;;;14.92;100.00;101052.63;6249902;22;20020;-79
2023/08/31 08:33:09;;;;;;;10.75;5.53;;;;;;;14.90;100.00;101049.66;6247929;22;20394;-82
2023/08/31 08:35:38;;;;;;;6.30;5.50;;;;;;;14.95;100.00;101057.06;6250146;22;20103;-80
2023/08/31 08:38:05;;;;;;;9.60;5.95;;;;;;;14.92;100.00;101054.56;6249955;22;20017;-86
2023/08/31 08:40:32;;;;;;;6.97;5.60;;;;;;;15.00;100.00;101058.34;6249846;22;20079;-80
2023/08/31 08:43:10;;;;;;;10.05;5.65;;;;;;;15.08;100.00;101050.69;6250018;22;20439;-80
2023/08/31 08:45:40;;;;;;;6.32;5.72;;;;;;;15.12;100.00;101054.66;6222886;22;20100;-80
2023/08/31 08:48:08;;;;;;;6.40;5.78;;;;;;;15.16;100.00;101059.84;6222068;22;20033;-82
2023/08/31 08:50:36;;;;;;;6.80;5.82;;;;;;;15.29;100.00;101061.03;6249554;22;20028;-79
2023/08/31 08:53:04;;;;;;;5.93;5.40;;;;;;;15.63;100.00;101058.88;6249933;22;20096;-79
2023/08/31 08:55:31;;;;;;;8.43;5.18;;;;;;;16.01;100.00;101057.91;6249184;22;20103;-80
2023/08/31 08:57:59;;;;;;;7.47;4.85;;;;;;;16.21;100.00;101062.56;6250012;22;20442;-80
2023/08/31 09:00:27;;;;;;;5.32;4.82;;;;;;;16.30;100.00;101065.84;6249253;22;20274;-80
2023/08/31 09:02:54;;;;;;;5.20;4.68;;;;;;;16.58;100.00;101065.41;6249429;22;20719;-79
2023/08/31 09:05:22;;;;;;;5.55;4.80;;;;;;;16.67;100.00;101060.66;6249303;22;20091;-80
2023/08/31 09:08:06;;;;;;;6.45;3.67;;;;;;;16.85;100.00;101064.25;6250141;22;20024;-79
2023/08/31 09:10:40;;;;;;;5.00;3.47;;;;;;;17.13;99.50;101061.81;6249751;22;20013;-76
2023/08/31 09:13:09;;;;;;;5.53;3.42;;;;;;;17.30;97.34;101057.28;6222809;22;20020;-76
2023/08/31 09:15:43;;;;;;;4.57;3.50;;;;;;;17.47;99.26;101052.03;6222904;22;20021;-76
2023/08/31 09:18:24;;;;;;;4.35;3.33;;;;;;;17.71;98.17;101051.72;6248908;22;20019;-75
2023/08/31 09:20:51;;;;;;;9.25;3.70;;;;;;;17.68;97.54;101053.41;6250134;22;20043;-75
2023/08/31 09:23:18;;;;;;;4.20;3.50;;;;;;;17.64;96.89;101061.66;6249654;22;20017;-75
2023/08/31 09:25:50;;;;;;;6.65;2.50;;;;;;;17.55;92.88;101056.50;6249918;22;20041;-75
2023/08/31 09:28:19;;;;;;;3.67;2.70;;;;;;;17.50;95.38;101065.28;6249809;22;20075;-76
2023/08/31 09:30:52;;;;;;;5.07;2.53;;;;;;;17.38;94.97;101063.72;6249677;22;20012;-78
2023/08/31 09:33:20;;;;;;;6.15;2.45;;;;;;;17.25;94.91;101063.34;6222355;22;20013;-79
2023/08/31 09:35:50;;;;;;;5.13;2.10;;;;;;;17.00;90.79;101060.25;6249964;22;20024;-75
2023/08/31 09:38:17;;;;;;;3.55;2.03;;;;;;;16.99;93.42;101069.53;6249500;22;20067;-77
2023/08/31 09:40:44;;;;;;;5.22;1.60;;;;;;;16.96;93.30;101073.16;6249716;22;20510;-76
2023/08/31 09:43:18;;;;;;;3.22;1.55;;;;;;;17.05;96.11;101069.56;6249537;22;20016;-76
2023/08/31 09:45:45;;;;;;;3.05;1.40;;;;;;;17.56;93.05;101079.50;6222445;22;20071;-78
2023/08/31 09:48:14;;;;;;;6.70;1.63;;;;;;;17.91;91.74;101078.50;6249400;22;20009;-79
2023/08/31 09:50:43;;;;;;;6.40;1.83;;;;;;;18.37;92.25;101067.44;6249129;22;20013;-80
2023/08/31 09:53:11;;;;;;;2.67;1.30;;;;;;;18.50;85.79;101062.31;6249303;22;20017;-79
2023/08/31 09:55:39;;;;;;;4.35;1.45;;;;;;;18.52;84.50;101059.13;6249409;22;20027;-80
2023/08/31 09:58:08;;;;;;;2.78;1.40;;;;;;;18.78;86.18;101065.13;6249722;22;20067;-79
2023/08/31 10:00:43;;;;;;;3.83;1.30;;;;;;;18.88;84.73;101069.03;6249061;22;20023;-81
2023/08/31 10:03:14;;;;;;;6.55;1.52;;;;;;;18.89;81.42;101072.47;6248965;22;20051;-81
2023/08/31 10:05:49;;;;;;;3.95;1.38;;;;;;;18.90;77.54;101076.63;6249921;22;20418;-83
2023/08/31 10:08:17;;;;;;;1.23;1.05;;;;;;;18.97;75.72;101076.16;6249324;22;20064;-77
2023/08/31 10:10:44;;;;;;;3.20;1.30;;;;;;;19.08;75.53;101065.38;6222619;22;20016;-77
2023/08/31 10:13:11;;;;;;;2.40;0.98;;;;;;;19.41;71.86;101063.88;6221764;22;20016;-76
2023/08/31 10:15:39;;;;;;;5.22;1.15;;;;;;;19.50;72.12;101074.44;6248492;22;20397;-76
2023/08/31 10:18:07;;;;;;;1.83;1.00;;;;;;;19.45;70.81;101069.75;6196729;22;20406;-78
2023/08/31 10:20:34;;;;;;;1.95;1.23;;;;;;;19.31;72.29;101058.72;6222315;22;20036;-77
2023/08/31 10:23:04;;;;;;;1.00;0.90;;;;;;;19.39;66.46;101061.66;6249163;22;20040;-77
2023/08/31 10:25:46;;;;;;;2.58;0.88;;;;;;;19.38;68.26;101065.59;6248604;22;20028;-80
2023/08/31 10:28:22;;;;;;;;;;;;;;;19.60;68.99;101072.94;6249557;22;20016;-77
2023/08/31 10:31:03;;;;;;;3.10;1.00;;;;;;;19.70;67.01;101065.31;6249433;22;19920;-77
2023/08/31 10:33:46;;;;;;;3.40;1.10;;;;;;;19.69;66.41;101064.59;6196670;22;20076;-76
2023/08/31 10:36:17;;;;;;;2.85;1.10;;;;;;;19.76;64.92;101058.69;6248779;22;20024;-77
2023/08/31 10:38:51;;;;;;;;;;;;;;;19.95;70.13;101067.72;6249615;22;20017;-76
2023/08/31 10:41:19;;;;;;;1.13;0.70;;;;;;;19.85;64.95;101063.81;6221847;22;20393;-75
2023/08/31 10:43:51;;;;;;;2.22;0.95;;;;;;;19.96;61.32;101061.09;6248642;22;20060;-81
2023/08/31 10:46:31;;;;;;;3.03;1.00;;;;;;;19.99;61.18;101059.34;6249584;22;20474;-83
2023/08/31 10:49:10;;;;;;;8.35;0.93;;;;;;;20.10;62.98;101070.09;6249240;22;20017;-74
2023/08/31 10:51:40;;;;;;;9.23;1.10;;;;;;;19.98;61.47;101072.13;6248572;22;20446;-74
2023/08/31 10:54:06;;;;;;;1.83;0.90;;;;;;;19.92;59.54;101067.97;6248462;22;20446;-78
2023/08/31 10:56:33;;;;;;;1.10;0.60;;;;;;;20.02;60.11;101071.84;6248635;22;20079;-77
2023/08/31 10:59:01;;;;;;;2.60;0.70;;;;;;;20.03;58.24;101062.50;6248287;22;20346;-78
2023/08/31 11:01:56;;;;;;;1.48;0.88;;;;;;;20.11;59.00;101065.44;6249104;22;20013;-81
2023/08/31 11:04:25;;;;;;;2.33;0.90;;;;;;;20.22;59.87;101063.44;6249402;22;20476;-81
2023/08/31 11:07:12;;;;;;;2.58;1.00;;;;;;;20.24;60.07;101065.63;6250212;22;20434;-76
2023/08/31 11:09:39;;;;;;;0.70;0.70;;;;;;;19.95;55.65;101065.03;6222189;22;20079;-78
2023/08/31 11:12:06;;;;;;;1.42;0.90;;;;;;;19.88;55.43;101075.59;6222037;22;20021;-78
2023/08/31 11:14:33;;;;;;;1.67;0.80;;;;;;;19.81;54.48;101082.25;6249757;22;20052;-77
2023/08/31 11:17:01;;;;;;;3.30;1.17;;;;;;;19.75;55.98;101078.81;6250220;22;20017;-77
2023/08/31 11:19:28;;;;;;;2.03;0.70;;;;;;;19.80;54.35;101078.06;6249391;22;20013;-78
2023/08/31 11:21:55;;;;;;;0.88;0.80;;;;;;;19.90;54.21;101075.84;6250129;22;20024;-81
2023/08/31 11:24:22;;;;;;;2.15;1.10;;;;;;;20.08;57.00;101075.25;6249847;22;20016;-75
2023/08/31 11:26:53;;;;;;;0.90;0.88;;;;;;;20.24;54.93;101073.75;6249571;22;20016;-77